Amarillo, TX (79120)

4:01 PM CST on December 06, 2016 (GMT -0600)
Travis middle school | | Change Station

Elev 3658 ft 35.24 °N, 101.81 °W | Updated 1 minute ago

Scattered Clouds
Scattered Clouds
40.0 °F
Feels Like 37 °F
N
4.0
Wind Variable Wind from ESE

Today
High -- | Low -- °F
--% Chance of Precip.
Yesterday
High -- | Low -- °F
Precip. -- in
Pressure 30.04 in
Visibility 10.0 miles
Clouds Scattered Clouds 12000 ft
Windchill 37 °F
Dew Point 2 °F
Humidity 20%
Rainfall 0.00 in
Snow Depth Not available.
7:42 AM 5:34 PM
Waxing Crescent, 45% visible
METAR KAMA 062153Z 11007KT 10SM SCT120 03/M14 A3001 RMK AO2 SLP170 T00281144
Pressure 30.04 in
Visibility 10.0 miles
Clouds Scattered Clouds 12000 ft
Windchill 37 °F
Dew Point 2 °F
Humidity 20%
Rainfall 0.00 in
Snow Depth Not available.
7:42 AM 5:34 PM
Waxing Crescent, 45% visible
METAR KAMA 062153Z 11007KT 10SM SCT120 03/M14 A3001 RMK AO2 SLP170 T00281144

10-Day Weather Forecast

Almanac

Astronomy

Dec. 06, 2016 Rise Set
Actual Time
Civil Twilight
Nautical Twilight
Astronomical Twilight
Moon
Length of Visible Light
Length of Day
Tomorrow will be .
, % of the Moon is Illuminated

Today's Extremes

State Highs State Lows

Community

WunderPhotos

Upload Photos

1,956,037 photos uploaded!

WunderBlog® & News

Nearby

Air Quality

  Air Quality AQ Index Pollutant
Not available.

Snow Depth

Station Depth Elevation

Earthquake Activity

City Distance Mag. Time & Date
Minimum magnitude displayed is 2.5.

Coastal Water Temperatures

Place Temperature

Stations

Nearby Weather Stations

Station Location Temp. Windchill Dew Point Humidity Wind Precip. Elev Updated Type
                   

Watches & Warnings

There are currently no watches in effect.